Lake Placid, NY

8:53 PM EDT on March 27, 2015 (GMT -0400)
Intervale Lowlands | | Change Station
CLOSE
Current Station
Personal Weather Station
Location: Lake Placid, NY
Elevation: 1680 ft
Nearby Weather Stations

Elev 1680 ft 44.27 °N, 73.95 °W | Updated 20 seconds ago

Snow
Snow
26.3 °F
Feels Like 26 °F
N
0.0
Wind Variable Wind from NW
Gusts 2.0 mph

Today
High -- | Low -- °F
--% Chance of Precip.
Yesterday
High -- | Low -- °F
Precip. -- in
6:46 AM 7:16 PM
First Quarter, 57% visible
Pressure 29.78 in
Visibility 2.0 miles
Clouds Mostly Cloudy 900 ft
Overcast 2800 ft
Windchill 26 °F
Dew Point 24 °F
Humidity 94%
Rainfall 0.18 in
Snow Depth Not available.
UV 0 out of 12
Pollen .50 out of 12
Air Quality Not available.
Flu Activity Not available.
SPECI KSLK 280035Z AUTO 33006KT 2SM -SN BR BKN009 OVC028 M05/M07 A2978 RMK AO2 P0000 T10501067 $

More Conditions Fewer Conditions

Pressure 29.78 in
Visibility 2.0 miles
Clouds Mostly Cloudy 900 ft
Overcast 2800 ft
Windchill 26 °F
Dew Point 24 °F
Humidity 94%
Rainfall 0.18 in
Snow Depth Not available.
UV 0 out of 12
Pollen .50 out of 12
Air Quality Not available.
Flu Activity Not available.
SPECI KSLK 280035Z AUTO 33006KT 2SM -SN BR BKN009 OVC028 M05/M07 A2978 RMK AO2 P0000 T10501067 $

More Conditions Fewer Conditions

10-Day Weather Forecast

Almanac

Astronomy

Mar. 27, 2015 Rise Set
Actual Time
Civil Twilight
Nautical Twilight
Astronomical Twilight
Moon
Length of Visible Light
Length of Day
Tomorrow will be .
, % of the Moon is Illuminated

Today's Extremes

State Highs State Lows

Community

WunderPhotos

Upload Photos

1,808,894 photos uploaded!

WunderBlogs® & News

Nearby

Air Quality

  Air Quality AQ Index Pollutant
Not available.

Snow Depth

Station Depth Elevation

Earthquake Activity

City Distance Mag. Time & Date
Minimum magnitude displayed is 2.5.

Coastal Water Temperatures

Place Temperature

Stations

Nearby Weather Stations

Station Location Temp. Windchill Dew Point Humidity Wind Precip. Elev Updated Type